sensor_id;sensor_type;location;lat;lon;timestamp;pressure;altitude;pressure_sealevel;temperature;humidity
16806;BME280;8520;50.102;20.010;2022-12-04T00:01:23;98969.56;;;4.50;85.25
16806;BME280;8520;50.102;20.010;2022-12-04T00:03:52;98966.59;;;4.41;85.34
16806;BME280;8520;50.102;20.010;2022-12-04T00:06:21;98969.09;;;4.32;85.42
16806;BME280;8520;50.102;20.010;2022-12-04T00:08:50;98966.13;;;4.22;85.97
16806;BME280;8520;50.102;20.010;2022-12-04T00:11:21;98971.56;;;4.46;85.74
16806;BME280;8520;50.102;20.010;2022-12-04T00:13:49;98973.28;;;4.36;85.22
16806;BME280;8520;50.102;20.010;2022-12-04T00:16:19;98972.31;;;4.50;85.17
16806;BME280;8520;50.102;20.010;2022-12-04T00:18:49;98964.38;;;4.55;85.21
16806;BME280;8520;50.102;20.010;2022-12-04T00:21:19;98969.31;;;4.41;85.47
16806;BME280;8520;50.102;20.010;2022-12-04T00:23:47;98961.66;;;4.32;85.85
16806;BME280;8520;50.102;20.010;2022-12-04T00:26:17;98962.03;;;4.34;85.97
16806;BME280;8520;50.102;20.010;2022-12-04T00:28:46;98969.91;;;4.52;85.76
16806;BME280;8520;50.102;20.010;2022-12-04T00:31:16;98953.44;;;4.59;85.35
16806;BME280;8520;50.102;20.010;2022-12-04T00:33:45;98957.25;;;4.38;86.28
16806;BME280;8520;50.102;20.010;2022-12-04T00:36:17;98961.84;;;4.45;85.85
16806;BME280;8520;50.102;20.010;2022-12-04T00:38:46;98960.00;;;4.62;85.48
16806;BME280;8520;50.102;20.010;2022-12-04T00:41:16;98956.16;;;4.59;85.36
16806;BME280;8520;50.102;20.010;2022-12-04T00:43:44;98960.84;;;4.59;85.33
16806;BME280;8520;50.102;20.010;2022-12-04T00:46:12;98955.97;;;4.70;85.08
16806;BME280;8520;50.102;20.010;2022-12-04T00:48:41;98951.47;;;4.60;85.46
16806;BME280;8520;50.102;20.010;2022-12-04T00:51:10;98962.03;;;4.57;85.63
16806;BME280;8520;50.102;20.010;2022-12-04T00:53:40;98953.94;;;4.74;85.05
16806;BME280;8520;50.102;20.010;2022-12-04T00:56:10;98945.38;;;4.95;84.80
16806;BME280;8520;50.102;20.010;2022-12-04T00:58:40;98942.66;;;4.95;84.59
16806;BME280;8520;50.102;20.010;2022-12-04T01:01:10;98940.13;;;4.61;84.99
16806;BME280;8520;50.102;20.010;2022-12-04T01:03:38;98948.19;;;4.68;85.62
16806;BME280;8520;50.102;20.010;2022-12-04T01:06:15;98936.25;;;4.82;85.01
16806;BME280;8520;50.102;20.010;2022-12-04T01:08:45;98940.81;;;4.89;84.90
16806;BME280;8520;50.102;20.010;2022-12-04T01:11:14;98932.19;;;4.90;84.89
16806;BME280;8520;50.102;20.010;2022-12-04T01:13:42;98937.78;;;5.03;84.70
16806;BME280;8520;50.102;20.010;2022-12-04T01:16:15;98928.91;;;4.79;84.51
16806;BME280;8520;50.102;20.010;2022-12-04T01:18:43;98923.78;;;4.81;85.19
16806;BME280;8520;50.102;20.010;2022-12-04T01:21:11;98921.78;;;4.85;85.35
16806;BME280;8520;50.102;20.010;2022-12-04T01:23:39;98919.38;;;4.87;85.11
16806;BME280;8520;50.102;20.010;2022-12-04T01:26:08;98921.69;;;4.89;85.35
16806;BME280;8520;50.102;20.010;2022-12-04T01:28:37;98915.00;;;4.50;86.07
16806;BME280;8520;50.102;20.010;2022-12-04T01:31:06;98906.53;;;4.64;86.10
16806;BME280;8520;50.102;20.010;2022-12-04T01:33:36;98906.72;;;4.53;86.53
16806;BME280;8520;50.102;20.010;2022-12-04T01:36:06;98901.88;;;4.41;87.29
16806;BME280;8520;50.102;20.010;2022-12-04T01:38:35;98900.84;;;4.55;86.87
16806;BME280;8520;50.102;20.010;2022-12-04T01:41:04;98905.63;;;4.71;86.35
16806;BME280;8520;50.102;20.010;2022-12-04T01:43:35;98906.28;;;4.35;87.64
16806;BME280;8520;50.102;20.010;2022-12-04T01:46:04;98907.03;;;4.36;87.36
16806;BME280;8520;50.102;20.010;2022-12-04T01:48:34;98906.13;;;4.66;86.79
16806;BME280;8520;50.102;20.010;2022-12-04T01:51:07;98904.06;;;4.50;86.83
16806;BME280;8520;50.102;20.010;2022-12-04T01:53:41;98895.97;;;4.66;86.20
16806;BME280;8520;50.102;20.010;2022-12-04T01:56:12;98899.97;;;4.62;86.15
16806;BME280;8520;50.102;20.010;2022-12-04T01:58:45;98889.69;;;4.69;86.39
16806;BME280;8520;50.102;20.010;2022-12-04T02:01:15;98888.91;;;4.49;86.92
16806;BME280;8520;50.102;20.010;2022-12-04T02:03:43;98892.75;;;4.71;86.31
16806;BME280;8520;50.102;20.010;2022-12-04T02:06:11;98894.50;;;4.38;87.57
16806;BME280;8520;50.102;20.010;2022-12-04T02:08:39;98896.81;;;4.63;86.75
16806;BME280;8520;50.102;20.010;2022-12-04T02:11:14;98896.38;;;4.65;86.40
16806;BME280;8520;50.102;20.010;2022-12-04T02:13:55;98881.06;;;4.71;86.16
16806;BME280;8520;50.102;20.010;2022-12-04T02:16:34;98898.34;;;4.84;86.21
16806;BME280;8520;50.102;20.010;2022-12-04T02:19:16;98891.75;;;4.85;85.58
16806;BME280;8520;50.102;20.010;2022-12-04T02:21:53;98907.75;;;4.83;85.98
16806;BME280;8520;50.102;20.010;2022-12-04T02:24:39;98898.03;;;4.82;85.52
16806;BME280;8520;50.102;20.010;2022-12-04T02:27:30;98900.03;;;4.58;86.27
16806;BME280;8520;50.102;20.010;2022-12-04T02:30:04;98893.38;;;4.59;85.74
16806;BME280;8520;50.102;20.010;2022-12-04T02:32:37;98896.06;;;4.82;85.60
16806;BME280;8520;50.102;20.010;2022-12-04T02:35:13;98894.47;;;4.85;85.29
16806;BME280;8520;50.102;20.010;2022-12-04T02:37:44;98902.59;;;4.89;85.63
16806;BME280;8520;50.102;20.010;2022-12-04T02:40:19;98909.66;;;4.43;86.49
16806;BME280;8520;50.102;20.010;2022-12-04T02:42:54;98901.38;;;4.70;85.98
16806;BME280;8520;50.102;20.010;2022-12-04T02:45:30;98898.09;;;4.78;85.45
16806;BME280;8520;50.102;20.010;2022-12-04T02:48:01;98900.94;;;4.71;85.66
16806;BME280;8520;50.102;20.010;2022-12-04T02:50:34;98899.94;;;4.85;85.40
16806;BME280;8520;50.102;20.010;2022-12-04T02:53:08;98899.19;;;4.61;85.48
16806;BME280;8520;50.102;20.010;2022-12-04T02:55:40;98897.31;;;4.11;87.45
16806;BME280;8520;50.102;20.010;2022-12-04T02:58:13;98903.69;;;4.48;86.99
16806;BME280;8520;50.102;20.010;2022-12-04T03:00:46;98903.47;;;4.39;86.90
16806;BME280;8520;50.102;20.010;2022-12-04T03:03:17;98910.00;;;4.45;86.92
16806;BME280;8520;50.102;20.010;2022-12-04T03:05:52;98911.41;;;4.29;87.42
16806;BME280;8520;50.102;20.010;2022-12-04T03:08:25;98914.25;;;4.46;86.84
16806;BME280;8520;50.102;20.010;2022-12-04T03:10:56;98918.41;;;4.54;86.47
16806;BME280;8520;50.102;20.010;2022-12-04T03:13:30;98912.91;;;4.57;86.57
16806;BME280;8520;50.102;20.010;2022-12-04T03:16:06;98909.13;;;4.51;86.67
16806;BME280;8520;50.102;20.010;2022-12-04T03:18:38;98914.59;;;4.71;85.98
16806;BME280;8520;50.102;20.010;2022-12-04T03:21:11;98907.56;;;4.27;86.59
16806;BME280;8520;50.102;20.010;2022-12-04T03:23:43;98912.03;;;4.41;87.05
16806;BME280;8520;50.102;20.010;2022-12-04T03:26:20;98903.22;;;4.53;86.86
16806;BME280;8520;50.102;20.010;2022-12-04T03:28:55;98912.69;;;4.48;86.90
16806;BME280;8520;50.102;20.010;2022-12-04T03:31:31;98915.22;;;4.59;86.29
16806;BME280;8520;50.102;20.010;2022-12-04T03:34:03;98905.06;;;4.60;86.62
16806;BME280;8520;50.102;20.010;2022-12-04T03:36:35;98902.22;;;4.67;86.29
16806;BME280;8520;50.102;20.010;2022-12-04T03:39:09;98905.41;;;4.62;85.90
16806;BME280;8520;50.102;20.010;2022-12-04T03:41:54;98906.06;;;4.69;85.70
16806;BME280;8520;50.102;20.010;2022-12-04T03:44:26;98906.50;;;4.88;85.33
16806;BME280;8520;50.102;20.010;2022-12-04T03:47:01;98910.22;;;4.97;85.40
16806;BME280;8520;50.102;20.010;2022-12-04T03:49:38;98906.13;;;4.66;85.28
16806;BME280;8520;50.102;20.010;2022-12-04T03:52:12;98900.69;;;4.85;85.46
16806;BME280;8520;50.102;20.010;2022-12-04T03:54:44;98896.63;;;4.94;84.87
16806;BME280;8520;50.102;20.010;2022-12-04T03:57:19;98903.00;;;5.07;84.79
16806;BME280;8520;50.102;20.010;2022-12-04T03:59:51;98906.34;;;4.75;85.03
16806;BME280;8520;50.102;20.010;2022-12-04T04:02:25;98911.75;;;4.78;85.06
16806;BME280;8520;50.102;20.010;2022-12-04T04:04:57;98890.28;;;4.57;85.40
16806;BME280;8520;50.102;20.010;2022-12-04T04:07:31;98900.25;;;4.67;85.72
16806;BME280;8520;50.102;20.010;2022-12-04T04:10:05;98913.50;;;4.69;85.81
16806;BME280;8520;50.102;20.010;2022-12-04T04:12:38;98913.94;;;4.64;85.83
16806;BME280;8520;50.102;20.010;2022-12-04T04:15:11;98909.91;;;4.72;85.25
16806;BME280;8520;50.102;20.010;2022-12-04T04:18:00;98904.53;;;4.88;85.04
16806;BME280;8520;50.102;20.010;2022-12-04T04:20:49;98909.28;;;4.84;84.99
16806;BME280;8520;50.102;20.010;2022-12-04T04:23:41;98910.25;;;4.94;84.70
16806;BME280;8520;50.102;20.010;2022-12-04T04:26:32;98909.34;;;4.61;85.33
16806;BME280;8520;50.102;20.010;2022-12-04T04:29:01;98907.25;;;4.68;84.98
16806;BME280;8520;50.102;20.010;2022-12-04T04:31:34;98908.91;;;4.62;85.41
16806;BME280;8520;50.102;20.010;2022-12-04T04:34:15;98918.19;;;4.45;85.25
16806;BME280;8520;50.102;20.010;2022-12-04T04:36:52;98918.47;;;4.27;85.93
16806;BME280;8520;50.102;20.010;2022-12-04T04:39:27;98921.47;;;4.13;87.19
16806;BME280;8520;50.102;20.010;2022-12-04T04:42:01;98904.81;;;4.31;86.85
16806;BME280;8520;50.102;20.010;2022-12-04T04:44:35;98905.56;;;4.31;86.58
16806;BME280;8520;50.102;20.010;2022-12-04T04:47:08;98901.34;;;4.50;85.87
16806;BME280;8520;50.102;20.010;2022-12-04T04:49:40;98905.25;;;4.49;86.12
16806;BME280;8520;50.102;20.010;2022-12-04T04:52:09;98896.09;;;4.39;86.56
16806;BME280;8520;50.102;20.010;2022-12-04T04:54:37;98899.97;;;4.38;87.02
16806;BME280;8520;50.102;20.010;2022-12-04T04:57:06;98880.47;;;4.40;86.59
16806;BME280;8520;50.102;20.010;2022-12-04T04:59:34;98891.31;;;4.43;86.08
16806;BME280;8520;50.102;20.010;2022-12-04T05:02:02;98891.00;;;4.61;85.55
16806;BME280;8520;50.102;20.010;2022-12-04T05:04:30;98888.25;;;4.41;85.46
16806;BME280;8520;50.102;20.010;2022-12-04T05:07:00;98891.56;;;4.72;85.26
16806;BME280;8520;50.102;20.010;2022-12-04T05:09:28;98899.97;;;4.62;85.08
16806;BME280;8520;50.102;20.010;2022-12-04T05:11:56;98909.56;;;4.70;84.79
16806;BME280;8520;50.102;20.010;2022-12-04T05:14:24;98906.34;;;4.75;84.63
16806;BME280;8520;50.102;20.010;2022-12-04T05:16:52;98900.94;;;4.71;84.59
16806;BME280;8520;50.102;20.010;2022-12-04T05:19:25;98913.13;;;4.67;84.91
16806;BME280;8520;50.102;20.010;2022-12-04T05:22:12;98902.22;;;4.67;84.89
16806;BME280;8520;50.102;20.010;2022-12-04T05:24:40;98893.72;;;4.61;85.04
16806;BME280;8520;50.102;20.010;2022-12-04T05:27:08;98894.81;;;4.44;85.49
16806;BME280;8520;50.102;20.010;2022-12-04T05:29:36;98886.84;;;4.53;85.31
16806;BME280;8520;50.102;20.010;2022-12-04T05:32:04;98897.72;;;4.10;86.39
16806;BME280;8520;50.102;20.010;2022-12-04T05:34:32;98885.78;;;4.47;85.82
16806;BME280;8520;50.102;20.010;2022-12-04T05:37:01;98890.75;;;4.32;85.49
16806;BME280;8520;50.102;20.010;2022-12-04T05:39:30;98897.78;;;4.29;86.33
16806;BME280;8520;50.102;20.010;2022-12-04T05:41:58;98895.47;;;4.28;86.42
16806;BME280;8520;50.102;20.010;2022-12-04T05:44:26;98900.66;;;4.66;85.31
16806;BME280;8520;50.102;20.010;2022-12-04T05:46:54;98896.13;;;4.79;84.56
16806;BME280;8520;50.102;20.010;2022-12-04T05:49:22;98902.03;;;4.54;84.74
16806;BME280;8520;50.102;20.010;2022-12-04T05:51:50;98904.78;;;4.74;84.52
16806;BME280;8520;50.102;20.010;2022-12-04T05:54:19;98902.28;;;4.83;84.39
16806;BME280;8520;50.102;20.010;2022-12-04T05:56:52;98912.22;;;4.73;84.17
16806;BME280;8520;50.102;20.010;2022-12-04T05:59:20;98909.06;;;4.75;84.50
16806;BME280;8520;50.102;20.010;2022-12-04T06:01:48;98909.81;;;4.55;84.97
16806;BME280;8520;50.102;20.010;2022-12-04T06:04:16;98917.22;;;4.55;85.24
16806;BME280;8520;50.102;20.010;2022-12-04T06:06:45;98915.16;;;4.63;84.66
16806;BME280;8520;50.102;20.010;2022-12-04T06:09:13;98917.94;;;4.59;84.71
16806;BME280;8520;50.102;20.010;2022-12-04T06:11:41;98915.03;;;4.70;84.48
16806;BME280;8520;50.102;20.010;2022-12-04T06:14:14;98920.50;;;4.90;83.97
16806;BME280;8520;50.102;20.010;2022-12-04T06:16:43;98919.09;;;4.81;84.01
16806;BME280;8520;50.102;20.010;2022-12-04T06:19:13;98914.53;;;4.32;85.34
16806;BME280;8520;50.102;20.010;2022-12-04T06:21:43;98919.91;;;4.59;85.08
16806;BME280;8520;50.102;20.010;2022-12-04T06:24:13;98915.78;;;4.70;84.47
16806;BME280;8520;50.102;20.010;2022-12-04T06:26:42;98906.53;;;4.64;84.48
16806;BME280;8520;50.102;20.010;2022-12-04T06:29:32;98912.84;;;4.61;84.67
16806;BME280;8520;50.102;20.010;2022-12-04T06:32:00;98913.16;;;4.87;84.11
16806;BME280;8520;50.102;20.010;2022-12-04T06:34:28;98914.53;;;4.75;84.36
16806;BME280;8520;50.102;20.010;2022-12-04T06:36:56;98920.63;;;4.82;84.37
16806;BME280;8520;50.102;20.010;2022-12-04T06:39:24;98928.81;;;5.02;83.79
16806;BME280;8520;50.102;20.010;2022-12-04T06:41:52;98927.63;;;4.83;83.92
16806;BME280;8520;50.102;20.010;2022-12-04T06:44:19;98922.59;;;4.82;83.89
16806;BME280;8520;50.102;20.010;2022-12-04T06:46:49;98920.16;;;4.88;83.82
16806;BME280;8520;50.102;20.010;2022-12-04T06:49:20;98920.44;;;5.13;83.09
16806;BME280;8520;50.102;20.010;2022-12-04T06:51:48;98923.84;;;4.77;83.44
16806;BME280;8520;50.102;20.010;2022-12-04T06:54:16;98925.97;;;4.90;83.88
16806;BME280;8520;50.102;20.010;2022-12-04T06:56:44;98921.91;;;4.98;83.63
16806;BME280;8520;50.102;20.010;2022-12-04T06:59:12;98919.22;;;4.74;84.02
16806;BME280;8520;50.102;20.010;2022-12-04T07:01:40;98912.06;;;4.61;84.83
16806;BME280;8520;50.102;20.010;2022-12-04T07:04:09;98910.88;;;4.62;84.58
16806;BME280;8520;50.102;20.010;2022-12-04T07:06:38;98906.25;;;4.59;85.25
16806;BME280;8520;50.102;20.010;2022-12-04T07:09:08;98906.66;;;4.57;85.18
16806;BME280;8520;50.102;20.010;2022-12-04T07:11:37;98899.00;;;4.72;84.77
16806;BME280;8520;50.102;20.010;2022-12-04T07:14:05;98897.97;;;4.85;84.35
16806;BME280;8520;50.102;20.010;2022-12-04T07:16:34;98899.13;;;4.65;84.86
16806;BME280;8520;50.102;20.010;2022-12-04T07:19:06;98896.91;;;4.79;84.55
16806;BME280;8520;50.102;20.010;2022-12-04T07:21:36;98899.84;;;4.69;84.69
16806;BME280;8520;50.102;20.010;2022-12-04T07:24:04;98903.34;;;4.89;84.16
16806;BME280;8520;50.102;20.010;2022-12-04T07:26:32;98908.22;;;4.58;84.98
16806;BME280;8520;50.102;20.010;2022-12-04T07:29:00;98911.13;;;4.91;84.31
16806;BME280;8520;50.102;20.010;2022-12-04T07:31:28;98912.34;;;4.66;84.77
16806;BME280;8520;50.102;20.010;2022-12-04T07:33:57;98910.13;;;5.01;84.14
16806;BME280;8520;50.102;20.010;2022-12-04T07:36:26;98896.91;;;4.79;84.10
16806;BME280;8520;50.102;20.010;2022-12-04T07:38:55;98911.25;;;4.83;84.21
16806;BME280;8520;50.102;20.010;2022-12-04T07:41:23;98905.66;;;4.91;84.05
16806;BME280;8520;50.102;20.010;2022-12-04T07:43:52;98911.66;;;5.02;83.80
16806;BME280;8520;50.102;20.010;2022-12-04T07:46:24;98903.69;;;5.11;83.40
16806;BME280;8520;50.102;20.010;2022-12-04T07:48:54;98901.13;;;5.04;83.42
16806;BME280;8520;50.102;20.010;2022-12-04T07:51:24;98895.94;;;4.90;83.54
16806;BME280;8520;50.102;20.010;2022-12-04T07:53:54;98899.06;;;4.68;84.17
16806;BME280;8520;50.102;20.010;2022-12-04T07:56:29;98901.69;;;4.95;83.96
16806;BME280;8520;50.102;20.010;2022-12-04T07:58:57;98904.41;;;5.15;83.15
16806;BME280;8520;50.102;20.010;2022-12-04T08:01:25;98900.31;;;4.83;83.93
16806;BME280;8520;50.102;20.010;2022-12-04T08:03:56;98894.03;;;4.87;83.98
16806;BME280;8520;50.102;20.010;2022-12-04T08:06:25;98897.59;;;4.83;83.75
16806;BME280;8520;50.102;20.010;2022-12-04T08:08:55;98889.06;;;5.01;83.85
16806;BME280;8520;50.102;20.010;2022-12-04T08:11:25;98887.88;;;5.02;83.92
16806;BME280;8520;50.102;20.010;2022-12-04T08:13:54;98895.38;;;4.98;83.88
16806;BME280;8520;50.102;20.010;2022-12-04T08:16:23;98894.03;;;4.87;84.00
16806;BME280;8520;50.102;20.010;2022-12-04T08:18:52;98899.56;;;5.03;83.67
16806;BME280;8520;50.102;20.010;2022-12-04T08:21:22;98895.56;;;5.27;83.07
16806;BME280;8520;50.102;20.010;2022-12-04T08:23:51;98892.63;;;5.18;82.85
16806;BME280;8520;50.102;20.010;2022-12-04T08:26:24;98898.69;;;4.66;85.17
16806;BME280;8520;50.102;20.010;2022-12-04T08:28:53;98897.81;;;5.12;83.73
16806;BME280;8520;50.102;20.010;2022-12-04T08:31:23;98905.28;;;5.28;83.20
16806;BME280;8520;50.102;20.010;2022-12-04T08:33:55;98918.72;;;5.39;82.70
16806;BME280;8520;50.102;20.010;2022-12-04T08:36:23;98913.97;;;5.43;82.20
16806;BME280;8520;50.102;20.010;2022-12-04T08:38:51;98908.84;;;5.45;82.46
16806;BME280;8520;50.102;20.010;2022-12-04T08:41:23;98908.59;;;5.39;82.68
16806;BME280;8520;50.102;20.010;2022-12-04T08:43:53;98910.13;;;5.21;82.47
16806;BME280;8520;50.102;20.010;2022-12-04T08:46:23;98907.59;;;5.30;82.16
16806;BME280;8520;50.102;20.010;2022-12-04T08:48:52;98905.91;;;5.36;82.36
16806;BME280;8520;50.102;20.010;2022-12-04T08:51:22;98897.47;;;5.30;82.61
16806;BME280;8520;50.102;20.010;2022-12-04T08:53:52;98920.28;;;5.20;82.57
16806;BME280;8520;50.102;20.010;2022-12-04T08:56:23;98916.00;;;5.39;82.17
16806;BME280;8520;50.102;20.010;2022-12-04T08:58:51;98922.84;;;5.47;82.48
16806;BME280;8520;50.102;20.010;2022-12-04T09:01:19;98919.63;;;5.52;82.13
16806;BME280;8520;50.102;20.010;2022-12-04T09:03:47;98918.34;;;5.57;81.91
16806;BME280;8520;50.102;20.010;2022-12-04T09:06:16;98910.44;;;5.62;81.49
16806;BME280;8520;50.102;20.010;2022-12-04T09:08:44;98906.84;;;5.65;81.36
16806;BME280;8520;50.102;20.010;2022-12-04T09:11:14;98908.69;;;5.88;81.16
16806;BME280;8520;50.102;20.010;2022-12-04T09:13:44;98910.19;;;5.73;81.43
16806;BME280;8520;50.102;20.010;2022-12-04T09:16:14;98908.75;;;5.85;81.03
16806;BME280;8520;50.102;20.010;2022-12-04T09:18:43;98916.03;;;5.55;81.48
16806;BME280;8520;50.102;20.010;2022-12-04T09:21:14;98919.72;;;6.01;80.79
16806;BME280;8520;50.102;20.010;2022-12-04T09:23:42;98926.56;;;5.93;80.31
16806;BME280;8520;50.102;20.010;2022-12-04T09:26:16;98918.44;;;6.38;79.82
16806;BME280;8520;50.102;20.010;2022-12-04T09:28:47;98919.84;;;6.14;79.92
16806;BME280;8520;50.102;20.010;2022-12-04T09:31:16;98916.25;;;6.17;79.93
16806;BME280;8520;50.102;20.010;2022-12-04T09:33:45;98903.38;;;6.30;79.25
16806;BME280;8520;50.102;20.010;2022-12-04T09:36:13;98907.31;;;6.62;79.08
16806;BME280;8520;50.102;20.010;2022-12-04T09:38:43;98905.13;;;6.40;78.94
16806;BME280;8520;50.102;20.010;2022-12-04T09:41:25;98904.09;;;6.02;80.59
16806;BME280;8520;50.102;20.010;2022-12-04T09:44:02;98907.69;;;6.31;79.89
16806;BME280;8520;50.102;20.010;2022-12-04T09:46:34;98898.91;;;6.69;79.01
16806;BME280;8520;50.102;20.010;2022-12-04T09:49:06;98887.72;;;6.47;79.17
16806;BME280;8520;50.102;20.010;2022-12-04T09:51:39;98889.47;;;6.41;79.67
16806;BME280;8520;50.102;20.010;2022-12-04T09:54:12;98885.81;;;6.31;79.89
16806;BME280;8520;50.102;20.010;2022-12-04T09:56:44;98883.63;;;6.39;79.90
16806;BME280;8520;50.102;20.010;2022-12-04T09:59:19;98880.16;;;6.67;79.42
16806;BME280;8520;50.102;20.010;2022-12-04T10:01:50;98871.28;;;6.63;79.07
16806;BME280;8520;50.102;20.010;2022-12-04T10:04:22;98875.97;;;6.63;79.15
16806;BME280;8520;50.102;20.010;2022-12-04T10:06:56;98870.91;;;6.77;79.15
16806;BME280;8520;50.102;20.010;2022-12-04T10:09:31;98873.53;;;6.81;79.02
16806;BME280;8520;50.102;20.010;2022-12-04T10:12:12;98871.41;;;6.72;78.34
16806;BME280;8520;50.102;20.010;2022-12-04T10:17:51;98857.94;;;7.20;77.87
16806;BME280;8520;50.102;20.010;2022-12-04T10:20:44;98842.41;;;7.29;77.72
16806;BME280;8520;50.102;20.010;2022-12-04T10:23:20;98843.16;;;7.17;78.30
16806;BME280;8520;50.102;20.010;2022-12-04T10:25:51;98838.25;;;6.83;78.45
16806;BME280;8520;50.102;20.010;2022-12-04T10:28:25;98831.09;;;7.15;78.37
16806;BME280;8520;50.102;20.010;2022-12-04T10:31:00;98825.56;;;6.89;79.32
16806;BME280;8520;50.102;20.010;2022-12-04T10:33:34;98821.44;;;7.10;78.46
16806;BME280;8520;50.102;20.010;2022-12-04T10:36:05;98822.56;;;7.25;78.24
16806;BME280;8520;50.102;20.010;2022-12-04T10:38:38;98820.56;;;7.13;78.73
16806;BME280;8520;50.102;20.010;2022-12-04T10:41:12;98810.25;;;7.30;78.53
16806;BME280;8520;50.102;20.010;2022-12-04T10:43:43;98809.19;;;7.53;78.11
16806;BME280;8520;50.102;20.010;2022-12-04T10:46:15;98811.25;;;7.61;77.37
16806;BME280;8520;50.102;20.010;2022-12-04T10:48:48;98819.91;;;7.73;77.45
16806;BME280;8520;50.102;20.010;2022-12-04T10:51:19;98816.19;;;7.54;77.42
16806;BME280;8520;50.102;20.010;2022-12-04T10:53:49;98810.59;;;7.57;77.35
16806;BME280;8520;50.102;20.010;2022-12-04T10:56:19;98814.00;;;7.49;77.42
16806;BME280;8520;50.102;20.010;2022-12-04T10:58:57;98819.50;;;7.61;77.02
16806;BME280;8520;50.102;20.010;2022-12-04T11:01:28;98815.63;;;7.72;76.88
16806;BME280;8520;50.102;20.010;2022-12-04T11:04:02;98813.97;;;7.74;76.83
16806;BME280;8520;50.102;20.010;2022-12-04T11:06:31;98804.34;;;7.69;77.37
16806;BME280;8520;50.102;20.010;2022-12-04T11:09:00;98794.91;;;7.58;77.77
16806;BME280;8520;50.102;20.010;2022-12-04T11:11:31;98798.28;;;7.75;77.24
16806;BME280;8520;50.102;20.010;2022-12-04T11:14:01;98794.91;;;7.70;77.80
16806;BME280;8520;50.102;20.010;2022-12-04T11:16:34;98799.63;;;7.70;77.73
16806;BME280;8520;50.102;20.010;2022-12-04T11:19:17;98793.97;;;7.99;76.64
16806;BME280;8520;50.102;20.010;2022-12-04T11:21:46;98792.13;;;7.96;76.66
16806;BME280;8520;50.102;20.010;2022-12-04T11:24:19;98782.00;;;8.06;75.93
16806;BME280;8520;50.102;20.010;2022-12-04T11:26:49;98789.78;;;8.07;75.99
16806;BME280;8520;50.102;20.010;2022-12-04T11:29:21;98793.59;;;7.62;77.02
16806;BME280;8520;50.102;20.010;2022-12-04T11:31:54;98789.09;;;7.68;77.22
16806;BME280;8520;50.102;20.010;2022-12-04T11:34:32;98790.19;;;7.71;77.20
16806;BME280;8520;50.102;20.010;2022-12-04T11:37:02;98788.44;;;8.12;76.35
16806;BME280;8520;50.102;20.010;2022-12-04T11:39:34;98786.81;;;8.14;76.05
16806;BME280;8520;50.102;20.010;2022-12-04T11:42:05;98781.44;;;8.45;75.20
16806;BME280;8520;50.102;20.010;2022-12-04T11:44:49;98787.81;;;8.64;74.87
16806;BME280;8520;50.102;20.010;2022-12-04T11:47:22;98788.13;;;8.88;73.77
16806;BME280;8520;50.102;20.010;2022-12-04T11:50:00;98783.13;;;8.96;74.18
16806;BME280;8520;50.102;20.010;2022-12-04T11:52:44;98783.47;;;8.98;73.33
16806;BME280;8520;50.102;20.010;2022-12-04T11:55:20;98784.25;;;8.54;74.28
16806;BME280;8520;50.102;20.010;2022-12-04T11:58:09;98788.53;;;9.08;74.17
16806;BME280;8520;50.102;20.010;2022-12-04T12:00:46;98774.72;;;9.30;72.76
16806;BME280;8520;50.102;20.010;2022-12-04T12:03:22;98777.16;;;9.68;72.43
16806;BME280;8520;50.102;20.010;2022-12-04T12:06:12;98781.34;;;9.91;70.89
16806;BME280;8520;50.102;20.010;2022-12-04T12:08:53;98782.47;;;10.40;70.36
16806;BME280;8520;50.102;20.010;2022-12-04T12:11:26;98790.13;;;10.45;69.57
16806;BME280;8520;50.102;20.010;2022-12-04T12:14:04;98785.97;;;10.40;69.42
16806;BME280;8520;50.102;20.010;2022-12-04T12:16:44;98789.09;;;11.12;67.31
16806;BME280;8520;50.102;20.010;2022-12-04T12:19:35;98785.72;;;11.17;66.30
16806;BME280;8520;50.102;20.010;2022-12-04T12:22:09;98778.50;;;11.86;65.53
16806;BME280;8520;50.102;20.010;2022-12-04T12:24:45;98785.34;;;11.66;65.32
16806;BME280;8520;50.102;20.010;2022-12-04T12:27:31;98776.34;;;11.57;66.50
16806;BME280;8520;50.102;20.010;2022-12-04T12:30:07;98781.53;;;11.64;65.73
16806;BME280;8520;50.102;20.010;2022-12-04T12:32:54;98782.53;;;11.43;66.04
16806;BME280;8520;50.102;20.010;2022-12-04T12:35:29;98776.47;;;11.62;65.65
16806;BME280;8520;50.102;20.010;2022-12-04T12:38:01;98782.03;;;11.86;65.12
16806;BME280;8520;50.102;20.010;2022-12-04T12:40:32;98775.66;;;11.38;65.87
16806;BME280;8520;50.102;20.010;2022-12-04T12:43:05;98774.44;;;11.39;66.29
16806;BME280;8520;50.102;20.010;2022-12-04T12:45:39;98774.28;;;11.33;66.07
16806;BME280;8520;50.102;20.010;2022-12-04T12:48:21;98772.66;;;11.27;66.00
16806;BME280;8520;50.102;20.010;2022-12-04T12:50:57;98768.97;;;11.21;65.94
16806;BME280;8520;50.102;20.010;2022-12-04T12:53:48;98760.84;;;10.66;67.67
16806;BME280;8520;50.102;20.010;2022-12-04T12:56:30;98751.06;;;10.56;68.33
16806;BME280;8520;50.102;20.010;2022-12-04T12:59:03;98765.09;;;10.94;67.43
16806;BME280;8520;50.102;20.010;2022-12-04T13:01:41;98771.34;;;10.95;67.43
16806;BME280;8520;50.102;20.010;2022-12-04T13:04:14;98772.44;;;10.97;67.73
16806;BME280;8520;50.102;20.010;2022-12-04T13:06:52;98766.22;;;10.51;68.13
16806;BME280;8520;50.102;20.010;2022-12-04T13:09:25;98768.22;;;10.50;68.24
16806;BME280;8520;50.102;20.010;2022-12-04T13:11:58;98758.91;;;10.30;69.07
16806;BME280;8520;50.102;20.010;2022-12-04T13:14:28;98767.31;;;10.63;69.01
16806;BME280;8520;50.102;20.010;2022-12-04T13:16:58;98763.47;;;10.60;68.36
16806;BME280;8520;50.102;20.010;2022-12-04T13:19:31;98765.47;;;10.32;69.28
16806;BME280;8520;50.102;20.010;2022-12-04T13:22:14;98759.19;;;10.32;69.71
16806;BME280;8520;50.102;20.010;2022-12-04T13:25:09;98759.94;;;10.60;68.65
16806;BME280;8520;50.102;20.010;2022-12-04T13:27:49;98760.38;;;10.03;69.98
16806;BME280;8520;50.102;20.010;2022-12-04T13:30:22;98765.13;;;10.03;69.35
16806;BME280;8520;50.102;20.010;2022-12-04T13:33:09;98763.88;;;9.85;70.14
16806;BME280;8520;50.102;20.010;2022-12-04T13:35:53;98770.03;;;9.89;69.98
16806;BME280;8520;50.102;20.010;2022-12-04T13:38:34;98764.09;;;10.28;68.80
16806;BME280;8520;50.102;20.010;2022-12-04T13:41:08;98772.84;;;10.35;68.32